Time;durP1;ratioP1;P1;durP2;ratioP2;P2;SDS_P1;SDS_P2;PMS_P1;PMS_P2;Temp;Humidity;BMP_temperature;BMP_pressure;BME280_temperature;BME280_humidity;BME280_pressure;Samples;Min_cycle;Max_cycle;Signal;HPM_P1;HPM_P2
2022/07/29 00:00:32;;;;;;;3.05;1.30;;;15.20;95.40;;;;;;4099908;29;20035;-81
2022/07/29 00:02:32;;;;;;;3.97;0.93;;;15.20;95.50;;;;;;4098413;28;20051;-81
2022/07/29 00:04:37;;;;;;;1.38;0.75;;;15.20;95.50;;;;;;4097900;29;20055;-81
2022/07/29 00:06:37;;;;;;;3.22;1.02;;;15.20;95.70;;;;;;4099708;29;20493;-81
2022/07/29 00:08:38;;;;;;;1.20;0.88;;;15.20;95.80;;;;;;4098271;29;20108;-81
2022/07/29 00:10:39;;;;;;;4.07;0.90;;;15.20;95.90;;;;;;4098848;29;20047;-82
2022/07/29 00:12:40;;;;;;;3.35;0.85;;;15.20;96.00;;;;;;4100316;29;20058;-81
2022/07/29 00:14:40;;;;;;;2.28;0.90;;;15.20;96.10;;;;;;4100125;29;20191;-81
2022/07/29 00:16:41;;;;;;;1.02;0.70;;;15.20;96.20;;;;;;4099201;29;20043;-81
2022/07/29 00:18:42;;;;;;;4.07;1.05;;;15.20;96.20;;;;;;4099504;29;20563;-81
2022/07/29 00:20:42;;;;;;;2.95;1.00;;;15.30;96.30;;;;;;4099780;29;20039;-81
2022/07/29 00:22:43;;;;;;;1.13;0.95;;;15.30;96.50;;;;;;4100028;29;20052;-81
2022/07/29 00:24:44;;;;;;;3.33;0.90;;;15.20;96.50;;;;;;4099438;29;20062;-81
2022/07/29 00:26:44;;;;;;;2.00;1.30;;;15.30;96.70;;;;;;4100052;29;20118;-82
2022/07/29 00:28:45;;;;;;;3.03;0.80;;;15.30;96.80;;;;;;4082637;29;20156;-81
2022/07/29 00:30:46;;;;;;;2.33;0.80;;;15.30;96.80;;;;;;4099838;28;20039;-81
2022/07/29 00:32:47;;;;;;;2.97;0.80;;;15.30;96.90;;;;;;4099830;29;20090;-81
2022/07/29 00:37:07;;;;;;;2.20;0.70;;;15.30;97.00;;;;;;4099517;29;20083;-81
2022/07/29 00:39:08;;;;;;;2.85;1.17;;;15.30;97.10;;;;;;4117493;28;20054;-81
2022/07/29 00:41:09;;;;;;;2.03;0.90;;;15.30;97.20;;;;;;4131992;28;20054;-81
2022/07/29 00:43:12;;;;;;;1.85;0.80;;;15.20;97.30;;;;;;4114751;28;20065;-82
2022/07/29 00:45:14;;;;;;;6.72;1.23;;;15.20;97.40;;;;;;4131990;28;20043;-81
2022/07/29 00:47:14;;;;;;;2.10;0.95;;;15.20;97.40;;;;;;4100387;29;20047;-81
2022/07/29 00:49:15;;;;;;;1.77;0.80;;;15.30;97.50;;;;;;4132020;28;20085;-82
2022/07/29 00:51:17;;;;;;;1.77;0.73;;;15.30;97.60;;;;;;4132208;28;20046;-81
2022/07/29 00:53:20;;;;;;;2.80;0.70;;;15.20;97.60;;;;;;4097704;29;20090;-81
2022/07/29 00:55:21;;;;;;;0.90;0.80;;;15.30;97.70;;;;;;4098764;28;20068;-81
2022/07/29 00:57:22;;;;;;;3.40;0.70;;;15.30;97.80;;;;;;4131515;28;20047;-81
2022/07/29 00:59:23;;;;;;;1.30;0.60;;;15.30;97.80;;;;;;4131723;28;20510;-82
2022/07/29 01:01:24;;;;;;;2.97;0.90;;;15.30;97.90;;;;;;4131515;28;20050;-82
2022/07/29 01:03:25;;;;;;;2.33;0.70;;;15.30;97.90;;;;;;4146603;28;20046;-82
2022/07/29 01:05:28;;;;;;;3.05;1.38;;;15.30;98.00;;;;;;4131954;28;20042;-82
2022/07/29 01:07:31;;;;;;;2.83;1.23;;;15.30;98.10;;;;;;4131444;28;20451;-81
2022/07/29 01:09:35;;;;;;;3.90;0.90;;;15.30;98.10;;;;;;4114913;28;20079;-81
2022/07/29 01:11:36;;;;;;;4.03;0.90;;;15.40;98.20;;;;;;4114286;28;20047;-81
2022/07/29 01:13:38;;;;;;;1.13;0.77;;;15.30;98.20;;;;;;4098375;28;20058;-82
2022/07/29 01:16:02;;;;;;;2.55;0.90;;;15.40;98.20;;;;;;4101553;29;20050;-82
2022/07/29 01:18:10;;;;;;;2.88;1.10;;;15.40;98.30;;;;;;4100923;29;20055;-81
2022/07/29 01:20:14;;;;;;;2.35;0.95;;;15.40;98.30;;;;;;4134507;28;20511;-81
2022/07/29 01:22:27;;;;;;;3.92;1.67;;;15.30;98.30;;;;;;4101278;29;20083;-81
2022/07/29 01:24:48;;;;;;;1.60;0.95;;;15.40;98.50;;;;;;4117171;28;20051;-82
2022/07/29 01:27:01;;;;;;;4.43;1.23;;;15.30;98.40;;;;;;4117088;28;20475;-81
2022/07/29 01:29:06;;;;;;;2.20;0.80;;;15.30;98.40;;;;;;4100548;29;20051;-81
2022/07/29 01:31:09;;;;;;;1.23;0.90;;;15.30;98.40;;;;;;4134117;28;20047;-81
2022/07/29 01:33:48;;;;;;;1.33;0.98;;;15.30;98.40;;;;;;4116911;28;20137;-81
2022/07/29 01:35:42;;;;;;;1.13;0.70;;;15.30;98.50;;;;;;4117115;28;20058;-81
2022/07/29 01:37:50;;;;;;;2.65;0.95;;;15.30;98.50;;;;;;4116802;28;20046;-81
2022/07/29 01:39:54;;;;;;;2.10;0.90;;;15.30;98.60;;;;;;4133876;28;20059;-81
2022/07/29 01:42:19;;;;;;;1.60;0.98;;;15.20;98.50;;;;;;4116587;28;20047;-81
2022/07/29 01:44:26;;;;;;;4.32;1.10;;;15.20;98.60;;;;;;4134217;28;20042;-81
2022/07/29 01:46:34;;;;;;;5.53;1.45;;;15.20;98.60;;;;;;4116954;28;20507;-81
2022/07/29 01:48:45;;;;;;;3.92;1.20;;;15.20;98.70;;;;;;4149300;28;20045;-81
2022/07/29 01:50:55;;;;;;;1.83;1.25;;;15.20;98.70;;;;;;4101157;29;20508;-81
2022/07/29 01:53:02;;;;;;;1.98;1.30;;;15.20;98.80;;;;;;4149505;28;20124;-81
2022/07/29 01:55:11;;;;;;;2.75;1.00;;;15.20;98.80;;;;;;4116957;28;20047;-81
2022/07/29 01:57:17;;;;;;;1.52;1.38;;;15.20;98.80;;;;;;4149443;28;20056;-81
2022/07/29 01:59:20;;;;;;;2.00;0.98;;;15.10;98.80;;;;;;4117236;28;20101;-82
2022/07/29 02:01:23;;;;;;;2.05;1.00;;;15.20;98.80;;;;;;4116996;28;20066;-82
2022/07/29 02:03:26;;;;;;;2.03;1.08;;;15.10;98.90;;;;;;4116514;28;20134;-81
2022/07/29 02:05:30;;;;;;;1.30;1.05;;;15.10;98.90;;;;;;4148899;28;20049;-81
2022/07/29 02:07:33;;;;;;;1.42;1.00;;;15.10;99.00;;;;;;4133461;28;20093;-81
2022/07/29 02:09:37;;;;;;;2.88;1.00;;;15.10;99.00;;;;;;4116485;28;20495;-81
2022/07/29 02:11:39;;;;;;;2.35;1.00;;;15.10;99.10;;;;;;4116415;28;20057;-81
2022/07/29 02:13:41;;;;;;;3.33;1.30;;;15.10;99.10;;;;;;4133626;28;20129;-81
2022/07/29 02:15:45;;;;;;;3.38;1.10;;;15.10;99.10;;;;;;4133459;28;20042;-81
2022/07/29 02:17:53;;;;;;;1.13;0.90;;;15.10;99.20;;;;;;4100227;29;20062;-82
2022/07/29 02:20:01;;;;;;;5.38;1.33;;;15.10;99.20;;;;;;4100237;29;20143;-82
2022/07/29 02:22:03;;;;;;;2.20;1.03;;;15.10;99.20;;;;;;4133383;28;20054;-82
2022/07/29 02:24:05;;;;;;;4.60;0.95;;;15.10;99.20;;;;;;4115999;28;20295;-82
2022/07/29 02:26:08;;;;;;;3.10;0.98;;;15.10;99.20;;;;;;4114769;28;20145;-82
2022/07/29 02:28:09;;;;;;;3.25;1.00;;;15.10;99.20;;;;;;4115949;28;20053;-81
2022/07/29 02:30:12;;;;;;;2.55;1.00;;;15.10;99.30;;;;;;4133277;28;20073;-82
2022/07/29 02:32:14;;;;;;;5.72;1.40;;;15.10;99.30;;;;;;4115753;28;20051;-82
2022/07/29 02:34:17;;;;;;;1.95;0.90;;;15.10;99.30;;;;;;4132244;28;20084;-82
2022/07/29 02:36:20;;;;;;;2.38;1.13;;;15.00;99.40;;;;;;4115669;28;20498;-82
2022/07/29 02:40:43;;;;;;;3.55;1.23;;;15.10;99.40;;;;;;4132807;28;20054;-82
2022/07/29 02:42:46;;;;;;;2.30;1.27;;;15.10;99.40;;;;;;4132971;28;20057;-82
2022/07/29 02:44:46;;;;;;;1.60;1.05;;;15.00;99.40;;;;;;4115724;28;20101;-82
2022/07/29 02:47:03;;;;;;;4.07;1.25;;;15.00;99.40;;;;;;4132859;28;20090;-82
2022/07/29 02:49:13;;;;;;;2.28;0.80;;;15.00;99.60;;;;;;4115741;28;20050;-82
2022/07/29 02:51:17;;;;;;;;;;;15.00;99.50;;;;;;4115810;28;20129;-82
2022/07/29 02:53:25;;;;;;;3.47;0.90;;;15.00;99.90;;;;;;4115429;28;20462;-82
2022/07/29 02:55:44;;;;;;;3.15;0.75;;;15.00;99.50;;;;;;4099456;28;20460;-82
2022/07/29 02:57:57;;;;;;;4.25;1.17;;;15.00;99.60;;;;;;4147768;28;20149;-81
2022/07/29 03:00:03;;;;;;;2.47;0.73;;;15.00;99.60;;;;;;4132560;28;20050;-81
2022/07/29 03:02:06;;;;;;;3.92;1.15;;;15.00;99.60;;;;;;4133145;28;20043;-81
2022/07/29 03:04:08;;;;;;;3.13;0.95;;;15.00;99.60;;;;;;4132988;28;20117;-82
2022/07/29 03:06:11;;;;;;;3.63;1.08;;;14.90;99.70;;;;;;4132801;28;20450;-82
2022/07/29 03:08:14;;;;;;;3.33;0.88;;;14.90;99.70;;;;;;4115119;28;20134;-81
2022/07/29 03:10:18;;;;;;;4.53;1.23;;;14.90;99.80;;;;;;4116470;28;20089;-82
2022/07/29 03:12:19;;;;;;;4.07;1.27;;;14.90;99.80;;;;;;4131910;28;20042;-81
2022/07/29 03:14:22;;;;;;;1.92;0.77;;;14.80;99.90;;;;;;4131784;28;20056;-81
2022/07/29 03:16:24;;;;;;;2.22;1.15;;;14.80;99.90;;;;;;4131379;28;20411;-82
2022/07/29 03:18:25;;;;;;;1.48;0.82;;;14.80;99.90;;;;;;4131679;28;20056;-81
2022/07/29 03:20:26;;;;;;;2.00;0.95;;;14.90;99.90;;;;;;4115667;28;20053;-82
2022/07/29 03:22:27;;;;;;;3.10;1.00;;;14.80;99.90;;;;;;4132614;28;20051;-81
2022/07/29 03:24:33;;;;;;;2.35;1.08;;;14.80;99.90;;;;;;4132424;28;20415;-81
2022/07/29 03:26:34;;;;;;;1.95;0.80;;;14.80;99.90;;;;;;4115733;28;20078;-81
2022/07/29 03:28:35;;;;;;;4.65;1.20;;;14.90;99.90;;;;;;4132709;28;20034;-82
2022/07/29 03:30:36;;;;;;;6.65;1.13;;;14.90;99.90;;;;;;4099122;29;20105;-82
2022/07/29 03:32:37;;;;;;;2.92;1.13;;;14.90;99.90;;;;;;4115157;28;20047;-81
2022/07/29 03:34:38;;;;;;;1.83;0.93;;;14.90;99.90;;;;;;4132361;28;20133;-81
2022/07/29 03:36:38;;;;;;;6.57;1.13;;;14.90;99.90;;;;;;4114612;28;20055;-82
2022/07/29 03:38:42;;;;;;;4.88;0.90;;;14.90;99.90;;;;;;4131899;28;20725;-82
2022/07/29 03:40:54;;;;;;;2.40;0.80;;;14.90;99.90;;;;;;4132297;28;20046;-82
2022/07/29 03:42:56;;;;;;;2.33;1.10;;;14.90;99.90;;;;;;4115356;28;20096;-82
2022/07/29 03:44:59;;;;;;;2.47;0.68;;;14.90;99.90;;;;;;4114723;28;20057;-82
2022/07/29 03:47:02;;;;;;;6.20;0.93;;;14.90;99.90;;;;;;4131453;28;20052;-81
2022/07/29 03:49:04;;;;;;;3.22;1.67;;;14.90;99.90;;;;;;4132261;28;20042;-81
2022/07/29 03:51:06;;;;;;;5.60;1.10;;;14.90;99.90;;;;;;4132198;28;20096;-81
2022/07/29 03:53:07;;;;;;;5.28;1.48;;;14.90;99.90;;;;;;4114946;28;20046;-81
2022/07/29 03:55:09;;;;;;;3.78;1.00;;;14.80;99.90;;;;;;4114865;28;20054;-81
2022/07/29 03:57:11;;;;;;;3.60;1.00;;;14.80;99.90;;;;;;4147013;28;20061;-81
2022/07/29 03:59:16;;;;;;;3.08;1.25;;;14.80;99.90;;;;;;4146162;28;20069;-81
2022/07/29 04:01:18;;;;;;;6.20;1.35;;;14.80;99.90;;;;;;4132033;28;20503;-81
2022/07/29 04:03:19;;;;;;;3.22;1.05;;;14.80;99.90;;;;;;4114856;28;20055;-81
2022/07/29 04:05:20;;;;;;;1.88;1.10;;;14.80;99.90;;;;;;4132268;28;20113;-82
2022/07/29 04:07:20;;;;;;;3.15;1.05;;;14.80;99.90;;;;;;4113980;28;20078;-81
2022/07/29 04:09:21;;;;;;;5.10;1.15;;;14.80;99.90;;;;;;4131511;28;20042;-81
2022/07/29 04:11:22;;;;;;;4.38;0.93;;;14.80;99.90;;;;;;4114531;28;20122;-81
2022/07/29 04:13:22;;;;;;;6.70;0.98;;;14.80;99.90;;;;;;4114713;28;20201;-82
2022/07/29 04:15:23;;;;;;;3.45;0.80;;;14.90;99.90;;;;;;4132202;28;20042;-82
2022/07/29 04:17:27;;;;;;;6.82;1.15;;;14.90;99.90;;;;;;4132390;28;20491;-82
2022/07/29 04:19:29;;;;;;;6.70;1.33;;;14.90;99.90;;;;;;4134981;28;20038;-82
2022/07/29 04:21:30;;;;;;;3.10;0.90;;;14.90;99.90;;;;;;4135334;28;20099;-82
2022/07/29 04:23:34;;;;;;;1.33;1.00;;;14.90;99.90;;;;;;4114923;28;20113;-82
2022/07/29 04:25:39;;;;;;;5.68;1.02;;;14.90;99.90;;;;;;4134940;28;20085;-82
2022/07/29 04:27:59;;;;;;;2.78;1.17;;;14.90;99.90;;;;;;4117592;28;20043;-82
2022/07/29 04:30:00;;;;;;;3.28;0.95;;;14.90;99.90;;;;;;4114586;28;20424;-82
2022/07/29 04:32:01;;;;;;;3.00;1.08;;;14.90;99.90;;;;;;4114681;28;20074;-82
2022/07/29 04:34:01;;;;;;;3.13;0.85;;;15.00;99.90;;;;;;4147037;28;20049;-82
2022/07/29 04:36:03;;;;;;;2.47;0.90;;;15.00;99.90;;;;;;4114377;28;20065;-82
2022/07/29 04:38:05;;;;;;;5.78;1.60;;;15.00;99.90;;;;;;4098787;29;20109;-82
2022/07/29 04:40:06;;;;;;;1.33;0.85;;;15.00;99.90;;;;;;4113914;28;20050;-82
2022/07/29 04:42:07;;;;;;;2.42;1.10;;;15.00;99.90;;;;;;4131359;28;20105;-81
2022/07/29 04:44:07;;;;;;;4.43;0.90;;;15.00;99.90;;;;;;4113851;28;20050;-81
2022/07/29 04:46:08;;;;;;;2.47;0.90;;;15.00;99.90;;;;;;4131362;28;20038;-81
2022/07/29 04:48:09;;;;;;;5.15;1.50;;;15.00;99.90;;;;;;4113896;28;20719;-81
2022/07/29 04:50:10;;;;;;;6.85;1.23;;;15.00;99.90;;;;;;4116850;28;20055;-82
2022/07/29 04:52:11;;;;;;;3.90;1.15;;;15.10;99.90;;;;;;4117426;28;20046;-82
2022/07/29 04:54:11;;;;;;;5.45;1.30;;;15.00;99.90;;;;;;4116718;28;20109;-82
2022/07/29 04:56:12;;;;;;;5.10;2.22;;;15.10;99.90;;;;;;4134495;28;20053;-82
2022/07/29 04:58:13;;;;;;;2.65;0.95;;;15.10;99.90;;;;;;4117262;28;20440;-81
2022/07/29 05:00:14;;;;;;;3.28;1.00;;;15.10;99.90;;;;;;4117620;28;20055;-82
2022/07/29 05:02:14;;;;;;;3.42;1.15;;;15.10;99.90;;;;;;4150013;28;20050;-82
2022/07/29 05:04:16;;;;;;;2.30;0.90;;;15.10;99.90;;;;;;4134788;28;20054;-82
2022/07/29 05:06:17;;;;;;;4.07;1.05;;;15.10;99.90;;;;;;4116859;28;20054;-82
2022/07/29 05:08:20;;;;;;;3.13;1.05;;;15.20;99.90;;;;;;4134820;28;20483;-82
2022/07/29 05:10:21;;;;;;;5.97;0.88;;;15.20;99.90;;;;;;4101923;29;20058;-81
2022/07/29 05:12:22;;;;;;;7.15;1.55;;;15.20;99.90;;;;;;4135092;28;20491;-81
2022/07/29 05:14:23;;;;;;;2.28;0.90;;;15.20;99.90;;;;;;4117757;28;20047;-82
2022/07/29 05:16:24;;;;;;;7.07;1.10;;;15.20;99.90;;;;;;4149265;28;20053;-82
2022/07/29 05:18:25;;;;;;;5.78;1.30;;;15.30;99.90;;;;;;4117202;28;20106;-82
2022/07/29 05:20:28;;;;;;;1.45;0.80;;;15.30;99.90;;;;;;4116921;28;20135;-81
2022/07/29 05:22:28;;;;;;;3.25;1.48;;;15.30;99.90;;;;;;4149741;28;20145;-82
2022/07/29 05:24:29;;;;;;;2.33;1.00;;;15.30;99.90;;;;;;4134086;28;20086;-82
2022/07/29 05:26:30;;;;;;;1.92;1.00;;;15.30;99.90;;;;;;4134657;28;20078;-81
2022/07/29 05:28:34;;;;;;;8.02;1.95;;;15.40;99.90;;;;;;4149678;28;20156;-81
2022/07/29 05:30:35;;;;;;;4.38;1.13;;;15.40;99.90;;;;;;4116521;28;20039;-82
2022/07/29 05:32:36;;;;;;;2.13;0.98;;;15.40;99.90;;;;;;4117128;28;20573;-82
2022/07/29 05:34:37;;;;;;;3.63;1.00;;;15.50;99.90;;;;;;4133339;28;20086;-82
2022/07/29 05:36:37;;;;;;;1.77;0.98;;;15.50;99.90;;;;;;4134081;28;20056;-82
2022/07/29 05:38:38;;;;;;;3.45;1.23;;;15.50;99.90;;;;;;4133598;28;20062;-82
2022/07/29 05:40:39;;;;;;;2.38;1.20;;;15.60;99.90;;;;;;4133766;28;20558;-82
2022/07/29 05:42:40;;;;;;;8.05;1.08;;;15.60;99.90;;;;;;4133646;28;20092;-82
2022/07/29 05:44:41;;;;;;;3.80;1.17;;;15.70;99.90;;;;;;4115979;28;20082;-82
2022/07/29 05:46:42;;;;;;;4.25;1.60;;;15.70;99.80;;;;;;4116268;28;20046;-82
2022/07/29 05:48:42;;;;;;;8.40;1.00;;;15.80;99.70;;;;;;4116393;28;20051;-82
2022/07/29 05:50:43;;;;;;;4.72;1.10;;;15.80;99.60;;;;;;4115641;28;20050;-82
2022/07/29 05:52:44;;;;;;;5.55;1.42;;;15.90;99.50;;;;;;4133619;28;20081;-82
2022/07/29 05:54:44;;;;;;;2.63;0.93;;;15.90;99.40;;;;;;4116333;28;20049;-82
2022/07/29 05:56:46;;;;;;;4.70;1.10;;;15.90;99.20;;;;;;4116555;28;20146;-82
2022/07/29 05:58:47;;;;;;;3.42;1.00;;;16.00;99.10;;;;;;4134477;28;20046;-82
2022/07/29 06:00:47;;;;;;;4.03;0.85;;;16.00;99.00;;;;;;4100934;28;20077;-82
2022/07/29 06:02:48;;;;;;;3.13;0.85;;;16.10;98.90;;;;;;4133277;28;20034;-82
2022/07/29 06:04:49;;;;;;;4.00;1.15;;;16.00;98.80;;;;;;4116499;28;20050;-82
2022/07/29 06:06:49;;;;;;;3.85;1.00;;;16.10;98.60;;;;;;4116883;28;20073;-82
2022/07/29 06:08:50;;;;;;;4.28;1.20;;;16.10;98.50;;;;;;4116603;28;20086;-82
2022/07/29 06:10:51;;;;;;;2.33;1.02;;;16.10;98.40;;;;;;4116453;28;20086;-82
2022/07/29 06:12:51;;;;;;;4.68;1.10;;;16.10;98.40;;;;;;4099992;29;20393;-82
2022/07/29 06:14:52;;;;;;;0.88;0.75;;;16.20;98.40;;;;;;4148549;28;20111;-82
2022/07/29 06:16:53;;;;;;;5.15;1.35;;;16.20;98.30;;;;;;4133265;28;20129;-82
2022/07/29 06:18:53;;;;;;;1.83;0.90;;;16.20;98.20;;;;;;4116180;28;20057;-82
2022/07/29 06:20:54;;;;;;;1.70;0.90;;;16.30;98.20;;;;;;4116292;28;20516;-82
2022/07/29 06:22:55;;;;;;;4.38;1.20;;;16.30;98.10;;;;;;4115651;28;20186;-82
2022/07/29 06:24:56;;;;;;;4.93;1.00;;;16.40;98.00;;;;;;4115556;28;20054;-82
2022/07/29 06:26:57;;;;;;;2.40;0.80;;;16.40;97.90;;;;;;4115101;28;20133;-82
2022/07/29 06:28:58;;;;;;;3.03;1.13;;;16.50;97.90;;;;;;4133626;28;20403;-82
2022/07/29 06:31:00;;;;;;;3.30;1.00;;;16.50;97.80;;;;;;4115921;28;20463;-81
2022/07/29 06:33:01;;;;;;;11.55;1.02;;;16.50;97.70;;;;;;4115966;28;20061;-82
2022/07/29 06:35:03;;;;;;;2.22;1.00;;;16.60;97.70;;;;;;4100757;29;20043;-82
2022/07/29 06:37:07;;;;;;;3.38;0.98;;;16.60;97.70;;;;;;4100143;29;20055;-82
2022/07/29 06:39:08;;;;;;;5.25;1.10;;;16.70;97.60;;;;;;4115427;28;20129;-82
2022/07/29 06:41:12;;;;;;;2.80;0.70;;;16.80;97.60;;;;;;4116189;28;20054;-82
2022/07/29 06:43:12;;;;;;;2.50;0.95;;;16.80;97.40;;;;;;4148404;28;20053;-82
2022/07/29 06:45:13;;;;;;;3.17;1.00;;;16.90;97.40;;;;;;4116040;28;20059;-82
2022/07/29 06:47:14;;;;;;;2.00;1.05;;;17.00;97.30;;;;;;4116034;28;20449;-82
2022/07/29 06:49:14;;;;;;;9.45;1.50;;;17.00;97.10;;;;;;4116291;28;20050;-82
2022/07/29 06:51:16;;;;;;;5.05;1.48;;;17.10;97.00;;;;;;4116084;28;20062;-82
2022/07/29 06:53:16;;;;;;;3.17;1.08;;;17.10;97.00;;;;;;4119316;28;20055;-82
2022/07/29 06:55:19;;;;;;;4.60;1.00;;;17.20;97.00;;;;;;4116124;28;20090;-82
2022/07/29 06:57:20;;;;;;;2.70;0.88;;;17.30;96.90;;;;;;4148782;28;20061;-82
2022/07/29 06:59:21;;;;;;;1.20;0.90;;;17.30;96.60;;;;;;4134457;28;20046;-82
2022/07/29 07:01:21;;;;;;;1.92;1.13;;;17.40;96.50;;;;;;4135370;28;20050;-81
2022/07/29 07:03:22;;;;;;;3.00;1.10;;;17.50;96.40;;;;;;4117675;29;20039;-81
2022/07/29 07:05:23;;;;;;;5.75;1.20;;;17.50;96.20;;;;;;4153207;28;20050;-82
2022/07/29 07:07:24;;;;;;;2.28;0.98;;;17.60;96.20;;;;;;4136302;28;20031;-81
2022/07/29 07:09:25;;;;;;;2.97;0.90;;;17.70;96.00;;;;;;4167584;28;20033;-82
2022/07/29 07:11:26;;;;;;;2.50;1.08;;;17.70;95.80;;;;;;4152382;28;20097;-80
2022/07/29 07:13:27;;;;;;;1.20;0.80;;;17.80;95.70;;;;;;4135752;28;20037;-80
2022/07/29 07:15:28;;;;;;;3.63;1.00;;;17.80;95.60;;;;;;4136114;28;20054;-81
2022/07/29 07:17:29;;;;;;;2.53;0.90;;;17.90;95.50;;;;;;4136006;28;20111;-80
2022/07/29 07:19:30;;;;;;;1.92;1.13;;;17.90;95.40;;;;;;4133460;28;20090;-81
2022/07/29 07:21:32;;;;;;;3.67;1.00;;;18.00;95.20;;;;;;4122049;28;20141;-81
2022/07/29 07:23:33;;;;;;;7.13;1.00;;;18.00;95.10;;;;;;4119805;28;20046;-81
2022/07/29 07:25:34;;;;;;;1.75;1.23;;;18.00;94.90;;;;;;4115291;28;20102;-81
2022/07/29 07:27:34;;;;;;;3.45;0.93;;;18.10;94.90;;;;;;4148053;28;20048;-81
2022/07/29 07:29:36;;;;;;;2.20;1.10;;;18.10;94.80;;;;;;4115609;28;20050;-81
2022/07/29 07:31:37;;;;;;;6.60;1.02;;;18.20;94.70;;;;;;4133010;28;20053;-82
2022/07/29 07:33:38;;;;;;;2.83;0.93;;;18.20;94.60;;;;;;4115410;28;20129;-81
2022/07/29 07:35:41;;;;;;;1.67;0.80;;;18.20;94.50;;;;;;4115020;28;20098;-81
2022/07/29 07:37:41;;;;;;;3.30;1.20;;;18.20;94.40;;;;;;4132488;28;20395;-81
2022/07/29 07:39:43;;;;;;;5.43;1.25;;;18.20;94.40;;;;;;4131504;28;20062;-81
2022/07/29 07:41:44;;;;;;;2.88;0.95;;;18.30;94.40;;;;;;4132322;28;20041;-81
2022/07/29 07:43:44;;;;;;;5.15;1.05;;;18.30;94.20;;;;;;4132199;28;20046;-81
2022/07/29 07:45:45;;;;;;;3.28;1.58;;;18.40;94.20;;;;;;4115006;28;20110;-81
2022/07/29 07:47:46;;;;;;;3.85;2.10;;;18.40;94.10;;;;;;4114189;28;20372;-82
2022/07/29 07:49:47;;;;;;;6.03;2.17;;;18.50;94.00;;;;;;4098765;29;20047;-81
2022/07/29 07:51:48;;;;;;;2.78;0.88;;;18.50;94.00;;;;;;4132080;28;20403;-82
2022/07/29 07:53:50;;;;;;;6.43;2.05;;;18.60;93.80;;;;;;4115034;28;20046;-81
2022/07/29 07:55:51;;;;;;;2.15;1.00;;;18.60;93.70;;;;;;4132102;28;20047;-82
2022/07/29 07:57:53;;;;;;;3.95;1.10;;;18.70;93.50;;;;;;4098751;29;20063;-82
2022/07/29 07:59:53;;;;;;;3.50;1.23;;;18.80;93.50;;;;;;4098424;29;20598;-82
2022/07/29 08:01:54;;;;;;;4.97;1.35;;;18.90;93.40;;;;;;4132026;28;20049;-81
2022/07/29 08:03:55;;;;;;;2.67;0.90;;;18.90;93.20;;;;;;4114505;28;20134;-81
2022/07/29 08:05:56;;;;;;;3.33;1.27;;;19.00;93.20;;;;;;4131794;28;20487;-82
2022/07/29 08:07:57;;;;;;;4.22;1.17;;;19.00;93.10;;;;;;4114653;28;20586;-82
2022/07/29 08:09:57;;;;;;;5.20;1.35;;;19.00;92.90;;;;;;4114203;28;20094;-82
2022/07/29 08:11:59;;;;;;;3.47;1.00;;;19.20;92.80;;;;;;4132162;28;20598;-81
2022/07/29 08:14:01;;;;;;;4.85;1.40;;;19.10;92.60;;;;;;4132165;28;20050;-81
2022/07/29 08:16:04;;;;;;;9.77;2.25;;;19.20;92.60;;;;;;4114325;28;20562;-82
2022/07/29 08:18:12;;;;;;;3.33;1.00;;;19.10;92.50;;;;;;4114507;28;20089;-81
2022/07/29 08:20:13;;;;;;;4.00;1.23;;;19.20;92.50;;;;;;4131554;28;20042;-82
2022/07/29 08:22:16;;;;;;;1.83;0.95;;;19.20;92.50;;;;;;4114595;28;20396;-82
2022/07/29 08:26:38;;;;;;;5.07;1.45;;;19.40;92.30;;;;;;4131542;28;20057;-82
2022/07/29 08:28:40;;;;;;;5.28;1.15;;;19.50;92.10;;;;;;4131654;28;20042;-82
2022/07/29 08:30:41;;;;;;;3.75;1.10;;;19.60;91.90;;;;;;4098281;29;20055;-82
2022/07/29 08:32:41;;;;;;;2.75;1.23;;;19.60;91.60;;;;;;4131538;28;20049;-82
2022/07/29 08:34:44;;;;;;;4.95;1.30;;;19.70;91.40;;;;;;4131189;28;20050;-82
2022/07/29 08:36:45;;;;;;;5.63;1.33;;;19.70;91.30;;;;;;4114456;28;20546;-82
2022/07/29 08:38:45;;;;;;;5.93;1.10;;;19.80;91.20;;;;;;4129350;28;20062;-83
2022/07/29 08:40:46;;;;;;;3.03;1.48;;;19.80;91.10;;;;;;4131139;28;20555;-83
2022/07/29 08:42:47;;;;;;;5.13;1.45;;;19.90;91.10;;;;;;4114612;28;20054;-83
2022/07/29 08:44:50;;;;;;;4.50;1.30;;;20.00;90.90;;;;;;4113773;28;20425;-82
2022/07/29 08:46:51;;;;;;;1.40;1.13;;;20.00;90.60;;;;;;4131578;28;20394;-82
2022/07/29 08:48:51;;;;;;;5.00;1.20;;;20.10;90.30;;;;;;4114204;28;20078;-82
2022/07/29 08:50:56;;;;;;;3.65;1.10;;;20.10;90.20;;;;;;4131538;28;20042;-82
2022/07/29 08:52:57;;;;;;;8.88;1.20;;;20.20;90.20;;;;;;4114174;28;20443;-82
2022/07/29 08:54:59;;;;;;;2.63;1.08;;;20.20;90.10;;;;;;4146360;28;20050;-83
2022/07/29 08:57:01;;;;;;;6.22;1.15;;;20.30;90.00;;;;;;4145997;28;20045;-82
2022/07/29 08:59:04;;;;;;;5.13;0.93;;;20.30;89.80;;;;;;4114040;28;20082;-83
2022/07/29 09:01:07;;;;;;;2.63;1.13;;;20.40;89.60;;;;;;4131688;28;20501;-83
2022/07/29 09:03:09;;;;;;;8.00;1.10;;;20.50;89.60;;;;;;4114341;28;20118;-82
2022/07/29 09:05:10;;;;;;;2.38;1.13;;;20.40;88.90;;;;;;4131000;28;20174;-82
2022/07/29 09:07:15;;;;;;;1.00;0.82;;;20.40;88.70;;;;;;4114070;28;20046;-82
2022/07/29 09:09:16;;;;;;;6.13;1.40;;;20.40;88.10;;;;;;4113898;28;20047;-82
2022/07/29 09:11:17;;;;;;;5.68;1.15;;;20.40;88.00;;;;;;4133887;28;20372;-82
2022/07/29 09:13:18;;;;;;;5.75;1.10;;;20.50;87.60;;;;;;4097868;29;20110;-82
2022/07/29 09:15:18;;;;;;;2.85;1.05;;;20.50;87.10;;;;;;4146143;28;20662;-81
2022/07/29 09:17:40;;;;;;;6.10;1.23;;;20.50;87.10;;;;;;4131322;28;20410;-81
2022/07/29 09:19:40;;;;;;;6.50;1.77;;;20.50;87.10;;;;;;4131310;28;20096;-81
2022/07/29 09:21:57;;;;;;;3.03;1.00;;;20.60;87.50;;;;;;4130601;28;20499;-81
2022/07/29 09:24:12;;;;;;;6.50;1.20;;;20.70;87.50;;;;;;4131074;28;20078;-81
2022/07/29 09:26:13;;;;;;;3.05;1.02;;;20.70;86.20;;;;;;4131496;28;20101;-81
2022/07/29 09:28:18;;;;;;;3.63;1.20;;;20.70;86.70;;;;;;4131223;28;20038;-81
2022/07/29 09:30:19;;;;;;;6.45;1.20;;;20.70;86.20;;;;;;4131278;28;20422;-82
2022/07/29 09:32:20;;;;;;;3.45;1.33;;;20.70;86.20;;;;;;4130824;28;20053;-82
2022/07/29 09:34:26;;;;;;;6.10;1.30;;;20.60;86.40;;;;;;4131234;28;20047;-82
2022/07/29 09:36:27;;;;;;;6.72;1.40;;;20.70;86.50;;;;;;4133982;28;20133;-82
2022/07/29 09:38:28;;;;;;;4.38;1.13;;;20.60;86.60;;;;;;4119958;28;20039;-81
2022/07/29 09:40:29;;;;;;;5.70;1.23;;;20.60;86.50;;;;;;4134206;28;20057;-81
2022/07/29 09:42:32;;;;;;;5.07;1.02;;;20.60;86.30;;;;;;4116635;28;20047;-81
2022/07/29 09:44:47;;;;;;;7.28;1.58;;;20.60;86.50;;;;;;4133932;28;20046;-82
2022/07/29 09:46:54;;;;;;;7.18;1.35;;;20.50;86.30;;;;;;4116776;28;20046;-81
2022/07/29 09:49:12;;;;;;;7.28;1.27;;;20.50;86.30;;;;;;4134127;28;20046;-81
2022/07/29 09:51:19;;;;;;;5.93;1.67;;;20.50;85.60;;;;;;4116595;28;20043;-82
2022/07/29 09:53:33;;;;;;;3.03;1.33;;;20.50;86.20;;;;;;4134092;28;20130;-81
2022/07/29 09:55:54;;;;;;;2.88;1.45;;;20.50;85.90;;;;;;4133172;28;20149;-82
2022/07/29 09:58:18;;;;;;;5.68;1.13;;;20.50;86.10;;;;;;4116484;28;20116;-82
2022/07/29 10:00:22;;;;;;;2.03;1.20;;;20.50;85.70;;;;;;4133835;28;20054;-81
2022/07/29 10:02:28;;;;;;;4.75;1.67;;;20.60;86.30;;;;;;4133948;28;20125;-81
2022/07/29 10:04:42;;;;;;;9.68;1.63;;;20.60;86.10;;;;;;4116595;28;20117;-81
2022/07/29 10:06:59;;;;;;;4.28;1.35;;;20.60;85.80;;;;;;4149046;28;20049;-81
2022/07/29 10:09:10;;;;;;;3.92;1.42;;;20.70;86.10;;;;;;4132854;28;20407;-81
2022/07/29 10:11:13;;;;;;;4.20;1.35;;;20.70;86.40;;;;;;4134165;28;20542;-81
2022/07/29 10:13:14;;;;;;;6.80;1.30;;;20.70;86.50;;;;;;4132309;28;20062;-81
2022/07/29 10:15:16;;;;;;;3.90;1.45;;;20.70;86.40;;;;;;4099776;28;20058;-81
2022/07/29 10:17:18;;;;;;;3.55;2.17;;;20.80;86.40;;;;;;4131918;28;20914;-82
2022/07/29 10:19:19;;;;;;;2.95;1.38;;;20.70;86.00;;;;;;4116548;28;20085;-82
2022/07/29 10:21:21;;;;;;;4.63;1.88;;;20.80;85.90;;;;;;4115666;28;20058;-82
2022/07/29 10:23:21;;;;;;;4.82;1.30;;;20.80;85.90;;;;;;4142397;28;20522;-82
2022/07/29 10:25:23;;;;;;;6.03;1.55;;;20.90;86.20;;;;;;4133229;28;20049;-82
2022/07/29 10:27:24;;;;;;;4.90;1.98;;;20.90;86.20;;;;;;4116299;28;20049;-82
2022/07/29 10:29:25;;;;;;;5.57;1.70;;;20.90;86.10;;;;;;4133033;28;20050;-81
2022/07/29 10:31:35;;;;;;;2.00;1.05;;;20.90;86.00;;;;;;4115918;28;20047;-81
2022/07/29 10:33:57;;;;;;;4.78;1.50;;;21.00;86.00;;;;;;4115855;28;20050;-81
2022/07/29 10:36:05;;;;;;;8.02;2.22;;;21.00;86.00;;;;;;4115818;28;20055;-82
2022/07/29 10:38:34;;;;;;;6.22;1.73;;;21.00;86.10;;;;;;4131578;28;20062;-82
2022/07/29 10:41:27;;;;;;;3.40;1.30;;;21.10;85.10;;;;;;4116645;28;20050;-83
2022/07/29 10:43:36;;;;;;;10.52;1.77;;;21.10;85.40;;;;;;4132271;28;20054;-83
2022/07/29 10:45:36;;;;;;;3.53;1.42;;;21.10;85.80;;;;;;4117156;28;20051;-83
2022/07/29 10:47:37;;;;;;;4.68;1.70;;;21.20;85.80;;;;;;4128406;28;20052;-83
2022/07/29 10:49:55;;;;;;;4.30;1.60;;;21.30;85.40;;;;;;4115309;28;20475;-83